Decoded Metar for KAMG (ALMA in GA, USA) (IATA:AMG) | Meteo·Mobile Aviation Weather
aviador You're here:

KAMG Decoded Metar

ALMA in GA, USA
Report Time2018-09-24 06:53:00
UTC Time2018-09-24 07:42:14
Flight Rules mvfr MVFR
WindCalm
Visibility8047 m
Phenomena:Mist
Clouds:N/A
Expected CloudBase > 400 ft AGL from Temp-Dew spread
CeilingNone
Temp22°C (ISA +7)
Dew Point21°C (94% RH)
QNH1018 hPa
Density Alt1,214 ft
Elevation194 ft
Report Wrong Elevation
Raw Report
METAR KAMG 240653Z AUTO 00000KT 5SM BR CLR 22/21 A3005 RMK AO2 SLP172
T02220211=

Extra information for KAMG:More info

Metar Taf Metar & Taf Last 4 Metars F.Rules Stats Wind Profile Meteogram Temp Stats Airport Information Weather charts Add Link Nearby VenuesMetar ALERT Operation Metar Decoded Social comments

AIRNAV info for KAMG